Time;durP1;ratioP1;P1;durP2;ratioP2;P2;SDS_P1;SDS_P2;PMS_P1;PMS_P2;Temp;Humidity;BMP_temperature;BMP_pressure;BME280_temperature;BME280_humidity;BME280_pressure;Samples;Min_cycle;Max_cycle;Signal;HPM_P1;HPM_P2
2024/01/17 05:01:10;;;;;;;3.20;1.50;;;-3.30;97.30;;;;;;5804509;23;20530;-90
2024/01/17 05:03:36;;;;;;;1.37;1.23;;;-3.30;97.30;;;;;;4990464;28;20436;-92
2024/01/17 05:06:02;;;;;;;1.63;1.53;;;-3.30;97.30;;;;;;5001909;28;20528;-92
2024/01/17 05:08:28;;;;;;;2.17;2.00;;;-3.30;97.30;;;;;;5005840;28;20453;-92
2024/01/17 05:10:55;;;;;;;3.00;2.73;;;-3.30;97.30;;;;;;5005267;28;20441;-91
2024/01/17 05:13:21;;;;;;;1.20;1.10;;;-3.30;97.30;;;;;;4993671;28;20495;-90
2024/01/17 05:15:46;;;;;;;1.70;1.60;;;-3.40;97.30;;;;;;4974929;28;20429;-91
2024/01/17 05:18:13;;;;;;;1.00;0.90;;;-3.40;97.30;;;;;;4998967;28;20186;-91
2024/01/17 05:20:40;;;;;;;1.83;1.73;;;-3.50;97.30;;;;;;4983592;28;20441;-93
2024/01/17 05:23:07;;;;;;;1.43;1.33;;;-3.50;97.30;;;;;;4989454;28;20454;-92
2024/01/17 05:25:33;;;;;;;1.70;1.60;;;-3.50;97.30;;;;;;4972091;28;20417;-93
2024/01/17 05:27:59;;;;;;;2.80;2.60;;;-3.50;97.30;;;;;;4997193;28;20449;-94
2024/01/17 05:30:25;;;;;;;1.93;1.87;;;-3.40;97.30;;;;;;4977839;28;20253;-91
2024/01/17 05:32:56;;;;;;;1.33;1.23;;;-3.40;97.30;;;;;;4974483;28;20183;-93
2024/01/17 05:35:29;;;;;;;1.10;1.00;;;-3.40;97.30;;;;;;4989079;28;20457;-93
2024/01/17 05:37:59;;;;;;;1.27;1.17;;;-3.40;97.30;;;;;;4995789;28;20430;-92
2024/01/17 05:40:27;;;;;;;1.87;1.77;;;-3.40;97.30;;;;;;4984644;28;20430;-92
2024/01/17 05:43:10;;;;;;;1.10;1.00;;;-3.30;97.30;;;;;;5001657;28;20486;-92
2024/01/17 05:45:50;;;;;;;1.20;1.10;;;-3.30;97.30;;;;;;4994806;28;20445;-94
2024/01/17 05:48:19;;;;;;;2.30;1.60;;;-3.30;97.30;;;;;;4991122;28;20442;-92
2024/01/17 05:50:49;;;;;;;1.67;1.57;;;-3.30;97.30;;;;;;4985024;28;20451;-94
2024/01/17 05:53:18;;;;;;;1.53;1.43;;;-3.20;97.30;;;;;;4979210;28;20935;-93
2024/01/17 05:55:48;;;;;;;1.70;1.60;;;-3.30;97.30;;;;;;4991822;28;20418;-93
2024/01/17 05:58:16;;;;;;;1.73;1.67;;;-3.30;97.30;;;;;;4992155;28;20429;-93
2024/01/17 06:00:49;;;;;;;3.13;2.93;;;-3.30;97.30;;;;;;4988563;28;20449;-93
2024/01/17 06:03:18;;;;;;;1.80;1.70;;;-3.30;97.30;;;;;;4987962;28;20433;-92
2024/01/17 06:05:47;;;;;;;2.27;2.10;;;-3.40;97.30;;;;;;4987328;28;20520;-93
2024/01/17 06:08:30;;;;;;;1.30;1.20;;;-3.40;97.30;;;;;;4986600;28;20429;-92
2024/01/17 06:10:58;;;;;;;1.20;1.10;;;-3.40;97.30;;;;;;4970988;28;20458;-92
2024/01/17 06:13:26;;;;;;;1.00;0.90;;;-3.50;97.30;;;;;;4975805;28;20469;-93
2024/01/17 06:16:00;;;;;;;1.43;1.13;;;-3.50;97.30;;;;;;4963651;28;20415;-93
2024/01/17 06:18:39;;;;;;;1.90;1.43;;;-3.70;97.30;;;;;;4964960;29;20542;-92
2024/01/17 06:21:07;;;;;;;1.33;1.20;;;-3.70;97.30;;;;;;4980143;28;20432;-92
2024/01/17 06:23:41;;;;;;;1.37;1.27;;;-3.70;97.30;;;;;;4998428;28;20432;-92
2024/01/17 06:26:08;;;;;;;1.33;1.23;;;-3.60;97.30;;;;;;4991538;28;20431;-91
2024/01/17 06:28:37;;;;;;;1.00;0.90;;;-3.60;97.30;;;;;;4987510;28;20426;-94
2024/01/17 06:31:09;;;;;;;1.53;1.43;;;-3.60;97.30;;;;;;4972771;28;20455;-93
2024/01/17 06:33:39;;;;;;;1.33;1.23;;;-3.60;97.30;;;;;;4966456;28;20475;-92
2024/01/17 06:36:08;;;;;;;2.90;2.70;;;-3.60;97.30;;;;;;4978547;28;20420;-94
2024/01/17 06:38:36;;;;;;;1.23;1.13;;;-3.60;97.30;;;;;;4968053;28;20423;-94
2024/01/17 06:43:48;;;;;;;1.00;0.90;;;-3.70;97.30;;;;;;4981732;28;20435;-93
2024/01/17 06:46:17;;;;;;;1.00;0.90;;;-3.80;97.30;;;;;;4981650;28;20430;-92
2024/01/17 06:48:49;;;;;;;3.33;3.13;;;-3.90;97.30;;;;;;4966799;28;20195;-92
2024/01/17 06:51:19;;;;;;;1.20;1.10;;;-4.00;97.30;;;;;;4964292;28;20443;-94
2024/01/17 06:53:48;;;;;;;1.17;1.10;;;-4.00;97.30;;;;;;4965768;28;20832;-93
2024/01/17 06:56:17;;;;;;;1.60;1.53;;;-4.00;97.30;;;;;;4982641;28;20426;-93
2024/01/17 06:59:03;;;;;;;;;;;;;;;;;;;;;
2024/01/17 07:01:39;;;;;;;1.40;1.30;;;-4.00;97.30;;;;;;4987924;28;20468;-94
2024/01/17 07:04:05;;;;;;;1.57;1.47;;;-4.10;97.30;;;;;;5007770;23;20547;-69
2024/01/17 07:06:31;;;;;;;1.63;1.53;;;-4.10;97.30;;;;;;4985319;28;20429;-70
2024/01/17 07:08:58;;;;;;;1.93;1.87;;;-4.10;97.30;;;;;;4984418;28;20190;-70
2024/01/17 07:11:24;;;;;;;1.43;1.30;;;-4.20;97.30;;;;;;4987104;28;20444;-70
2024/01/17 07:13:50;;;;;;;1.20;1.10;;;-4.20;97.30;;;;;;4989459;28;20472;-70
2024/01/17 07:16:15;;;;;;;1.20;1.10;;;-4.30;97.30;;;;;;4987746;28;20570;-70
2024/01/17 07:18:41;;;;;;;1.57;1.53;;;-4.20;97.30;;;;;;4987306;28;20560;-70
2024/01/17 07:21:07;;;;;;;0.90;0.80;;;-4.20;97.30;;;;;;4989916;28;20206;-70
2024/01/17 07:23:34;;;;;;;1.00;0.90;;;-4.10;97.30;;;;;;4978404;28;20194;-71
2024/01/17 07:26:00;;;;;;;1.53;1.43;;;-4.00;97.30;;;;;;4987686;28;20452;-71
2024/01/17 07:28:25;;;;;;;1.10;1.00;;;-4.00;97.30;;;;;;4979236;28;20507;-71
2024/01/17 07:30:51;;;;;;;1.23;1.13;;;-4.00;97.30;;;;;;4982313;28;20452;-72
2024/01/17 07:33:17;;;;;;;1.23;1.13;;;-3.90;97.30;;;;;;4992006;28;20512;-69
2024/01/17 07:35:42;;;;;;;1.73;1.63;;;-3.90;97.30;;;;;;4990301;28;20185;-70
2024/01/17 07:38:08;;;;;;;1.37;1.27;;;-3.80;97.30;;;;;;4984675;28;20191;-72
2024/01/17 07:40:33;;;;;;;2.20;1.53;;;-3.80;97.30;;;;;;4985238;28;20297;-72
2024/01/17 07:42:59;;;;;;;1.30;1.20;;;-3.70;97.30;;;;;;4990864;28;20186;-69
2024/01/17 07:45:25;;;;;;;3.90;1.43;;;-3.70;97.30;;;;;;4987049;28;20256;-69
2024/01/17 07:47:51;;;;;;;1.43;1.40;;;-3.60;97.30;;;;;;4981109;28;20197;-70
2024/01/17 07:50:16;;;;;;;2.30;1.83;;;-3.60;97.30;;;;;;4986512;28;20428;-69
2024/01/17 07:52:42;;;;;;;3.33;1.77;;;-3.50;97.30;;;;;;4986689;28;20545;-69
2024/01/17 07:55:08;;;;;;;2.53;2.33;;;-3.50;97.30;;;;;;4985379;28;20214;-69
2024/01/17 07:57:33;;;;;;;1.40;1.30;;;-3.50;97.30;;;;;;4988391;28;20602;-70
2024/01/17 07:59:59;;;;;;;1.10;1.00;;;-3.40;97.30;;;;;;4982747;28;21075;-72
2024/01/17 08:02:25;;;;;;;1.03;0.93;;;-3.40;97.30;;;;;;4982526;28;20225;-71
2024/01/17 08:04:52;;;;;;;1.10;1.00;;;-3.30;97.30;;;;;;4989227;28;20280;-72
2024/01/17 08:07:24;;;;;;;2.60;2.40;;;-3.30;97.30;;;;;;4989081;28;20440;-72
2024/01/17 08:09:51;;;;;;;1.50;1.40;;;-3.30;97.30;;;;;;4982557;28;20421;-72
2024/01/17 08:12:16;;;;;;;1.00;0.90;;;-3.30;97.30;;;;;;4987404;28;20524;-72
2024/01/17 08:14:42;;;;;;;1.00;0.90;;;-3.20;97.30;;;;;;4986304;28;20893;-72
2024/01/17 08:17:07;;;;;;;1.00;0.90;;;-3.20;97.30;;;;;;4992250;28;20661;-72
2024/01/17 08:19:33;;;;;;;1.60;1.50;;;-3.10;97.30;;;;;;4989456;28;20189;-72
2024/01/17 08:21:58;;;;;;;1.10;1.00;;;-3.00;97.30;;;;;;4973426;28;20693;-72
2024/01/17 08:24:24;;;;;;;1.20;1.10;;;-2.90;97.30;;;;;;4987752;28;20219;-71
2024/01/17 08:26:49;;;;;;;1.90;1.80;;;-2.80;97.30;;;;;;4990039;28;20186;-71
2024/01/17 08:29:17;;;;;;;1.50;1.40;;;-2.80;97.30;;;;;;4981963;28;20275;-71
2024/01/17 08:31:43;;;;;;;1.70;1.60;;;-2.70;97.30;;;;;;4987162;28;20220;-71
2024/01/17 08:34:09;;;;;;;1.40;1.30;;;-2.60;97.30;;;;;;4990304;28;20906;-72
2024/01/17 08:36:34;;;;;;;2.00;1.90;;;-2.60;97.30;;;;;;4988753;28;20228;-71
2024/01/17 08:39:00;;;;;;;1.30;1.20;;;-2.50;97.30;;;;;;4985687;28;20425;-71
2024/01/17 08:41:25;;;;;;;1.10;1.00;;;-2.40;97.30;;;;;;4989965;28;20678;-71
2024/01/17 08:43:51;;;;;;;1.67;1.57;;;-2.40;97.30;;;;;;4983975;28;20395;-71
2024/01/17 08:46:16;;;;;;;1.53;1.50;;;-2.40;97.30;;;;;;4982809;28;20677;-71
2024/01/17 08:48:42;;;;;;;1.17;1.07;;;-2.20;97.30;;;;;;4985354;28;20186;-71
2024/01/17 08:51:08;;;;;;;4.77;3.20;;;-2.20;97.30;;;;;;4988268;28;20201;-71
2024/01/17 08:53:38;;;;;;;12.40;4.17;;;-2.10;97.30;;;;;;4989175;28;20580;-71
2024/01/17 08:56:07;;;;;;;1.10;1.00;;;-2.00;97.30;;;;;;4981835;28;20416;-70
2024/01/17 08:58:33;;;;;;;1.10;1.00;;;-1.90;97.30;;;;;;4980242;28;20795;-70
2024/01/17 09:00:59;;;;;;;2.77;2.03;;;-1.90;97.30;;;;;;4985483;28;20430;-70
2024/01/17 09:03:24;;;;;;;1.10;1.00;;;-1.80;97.30;;;;;;4984146;28;20186;-71
2024/01/17 09:05:50;;;;;;;1.10;1.00;;;-1.80;97.30;;;;;;4988056;28;20182;-70
2024/01/17 09:08:16;;;;;;;2.90;1.43;;;-1.80;97.30;;;;;;4989417;28;20197;-70
2024/01/17 09:10:42;;;;;;;1.93;1.10;;;-1.80;97.30;;;;;;4980083;28;20208;-70
2024/01/17 09:13:09;;;;;;;1.33;1.23;;;-1.70;97.30;;;;;;4981568;28;20947;-70
2024/01/17 09:15:34;;;;;;;1.00;0.90;;;-1.70;97.30;;;;;;4989455;28;20435;-69
2024/01/17 09:18:00;;;;;;;1.40;1.30;;;-1.60;97.30;;;;;;4988196;28;20421;-69
2024/01/17 09:20:26;;;;;;;2.37;1.87;;;-1.50;97.30;;;;;;4982203;28;20690;-70
2024/01/17 09:22:51;;;;;;;1.60;1.50;;;-1.50;97.30;;;;;;4979588;28;20185;-69
2024/01/17 09:25:17;;;;;;;2.07;1.93;;;-1.30;97.30;;;;;;4983176;28;20194;-70
2024/01/17 09:27:43;;;;;;;1.00;0.90;;;-1.20;97.30;;;;;;4987584;28;20240;-67
2024/01/17 09:30:09;;;;;;;1.20;1.10;;;-1.20;97.30;;;;;;4988067;28;20232;-67
2024/01/17 09:32:37;;;;;;;1.23;1.13;;;-1.10;97.30;;;;;;4975481;28;20552;-66
2024/01/17 09:35:03;;;;;;;1.43;1.40;;;-0.90;97.30;;;;;;4977200;28;20929;-66
2024/01/17 09:37:28;;;;;;;2.20;1.73;;;-0.80;97.30;;;;;;4978363;28;20517;-66
2024/01/17 09:39:54;;;;;;;16.93;2.53;;;-0.70;97.30;;;;;;4985008;28;20523;-65
2024/01/17 09:42:20;;;;;;;1.90;1.53;;;-0.70;97.30;;;;;;4984330;28;20207;-65
2024/01/17 09:44:46;;;;;;;1.80;1.63;;;-0.70;97.30;;;;;;4980565;28;20190;-65
2024/01/17 09:47:16;;;;;;;1.40;1.30;;;-0.60;97.30;;;;;;4983205;28;20857;-66
2024/01/17 09:49:42;;;;;;;1.83;1.73;;;-0.40;97.30;;;;;;4977613;28;20436;-65
2024/01/17 09:52:10;;;;;;;1.40;1.30;;;-0.40;97.30;;;;;;4984890;28;20465;-65
2024/01/17 09:54:46;;;;;;;1.57;1.50;;;-0.30;97.30;;;;;;4983192;28;20498;-65
2024/01/17 09:57:19;;;;;;;3.47;3.27;;;-0.30;97.30;;;;;;4978649;28;20416;-65
2024/01/17 09:59:51;;;;;;;4.70;1.27;;;-0.30;97.30;;;;;;4985092;28;20905;-65
2024/01/17 10:02:18;;;;;;;1.47;1.40;;;-0.20;97.30;;;;;;4982768;28;20452;-66
2024/01/17 10:04:45;;;;;;;1.20;1.10;;;-0.20;97.30;;;;;;4985645;28;20502;-65
2024/01/17 10:07:12;;;;;;;3.67;2.50;;;-0.30;97.30;;;;;;4986720;28;20443;-65
2024/01/17 10:09:39;;;;;;;1.20;1.10;;;-0.30;97.30;;;;;;4981154;28;20937;-65
2024/01/17 10:12:05;;;;;;;1.23;1.13;;;-0.30;97.30;;;;;;4992623;28;20535;-65
2024/01/17 10:14:31;;;;;;;1.67;1.57;;;-0.30;97.30;;;;;;4988456;28;20468;-65
2024/01/17 10:16:57;;;;;;;1.30;1.20;;;-0.30;97.30;;;;;;4980001;28;20443;-65
2024/01/17 10:19:24;;;;;;;1.50;1.47;;;-0.30;97.30;;;;;;4984728;28;20190;-65
2024/01/17 10:21:50;;;;;;;1.67;1.60;;;-0.40;97.30;;;;;;4983300;28;20970;-65
2024/01/17 10:24:16;;;;;;;1.53;1.43;;;-0.40;97.30;;;;;;4983097;28;20496;-65
2024/01/17 10:26:42;;;;;;;1.47;1.30;;;-0.40;97.30;;;;;;4983941;28;20189;-65
2024/01/17 10:29:11;;;;;;;2.07;1.43;;;-0.40;97.30;;;;;;4991935;28;20248;-65
2024/01/17 10:31:41;;;;;;;1.70;1.67;;;-0.40;97.30;;;;;;4992100;28;20449;-65
2024/01/17 10:34:10;;;;;;;1.40;1.30;;;-0.40;97.30;;;;;;4979641;28;20527;-65
2024/01/17 10:36:39;;;;;;;1.50;1.40;;;-0.40;97.30;;;;;;4988300;28;20418;-65
2024/01/17 10:39:05;;;;;;;1.67;1.57;;;-0.40;97.30;;;;;;4992144;28;20417;-65
2024/01/17 10:41:31;;;;;;;4.00;1.50;;;-0.40;97.30;;;;;;4994725;28;20464;-65
2024/01/17 10:44:02;;;;;;;2.00;1.13;;;-0.30;97.30;;;;;;4986259;28;20460;-65
2024/01/17 10:46:27;;;;;;;4.40;2.03;;;-0.30;97.30;;;;;;4989319;28;20422;-65
2024/01/17 10:48:54;;;;;;;1.50;1.40;;;-0.30;97.30;;;;;;4989615;28;20817;-65
2024/01/17 10:51:21;;;;;;;1.30;1.20;;;-0.30;97.30;;;;;;4997099;28;20699;-65
2024/01/17 10:53:54;;;;;;;1.30;1.20;;;-0.20;97.30;;;;;;4991833;28;20463;-66
2024/01/17 10:56:20;;;;;;;1.53;1.40;;;-0.20;97.30;;;;;;4980351;28;20432;-65
2024/01/17 10:58:53;;;;;;;1.80;1.60;;;-0.20;97.30;;;;;;4983624;28;20414;-65
2024/01/17 11:01:30;;;;;;;2.23;2.03;;;-0.20;97.30;;;;;;4988350;28;20968;-65
2024/01/17 11:04:02;;;;;;;2.33;2.20;;;-0.20;97.30;;;;;;4983918;28;20887;-65
2024/01/17 11:06:28;;;;;;;3.70;1.70;;;-0.10;97.30;;;;;;4985980;28;20421;-65
2024/01/17 11:08:54;;;;;;;3.13;2.23;;;-0.10;97.30;;;;;;4990418;28;20424;-64
2024/01/17 11:11:23;;;;;;;1.47;1.47;;;-0.10;97.30;;;;;;4980516;28;20487;-65
2024/01/17 11:13:50;;;;;;;3.47;1.53;;;-0.10;97.30;;;;;;4988242;28;20483;-64
2024/01/17 11:16:18;;;;;;;1.20;1.10;;;0.00;97.30;;;;;;4990458;28;20417;-64
2024/01/17 11:18:46;;;;;;;3.13;2.23;;;0.00;97.30;;;;;;4989649;28;20903;-64
2024/01/17 11:21:11;;;;;;;1.20;1.10;;;0.10;97.30;;;;;;4987637;28;20830;-65
2024/01/17 11:23:53;;;;;;;1.73;1.63;;;0.20;97.30;;;;;;4989140;28;20424;-65
2024/01/17 11:26:30;;;;;;;1.60;1.50;;;0.20;97.30;;;;;;4987466;28;20194;-65
2024/01/17 11:29:01;;;;;;;3.77;2.40;;;0.30;97.30;;;;;;4990277;28;20606;-64
2024/01/17 11:31:44;;;;;;;1.20;1.10;;;0.40;97.30;;;;;;4984210;28;20461;-65
2024/01/17 11:34:11;;;;;;;1.40;1.30;;;0.50;97.30;;;;;;4983210;28;20807;-65
2024/01/17 11:36:47;;;;;;;1.40;1.30;;;0.70;97.30;;;;;;4989180;28;20494;-64
2024/01/17 11:39:17;;;;;;;1.00;0.90;;;0.80;97.30;;;;;;4983075;28;20443;-64
2024/01/17 11:41:44;;;;;;;1.00;0.90;;;0.90;97.30;;;;;;4986738;28;20425;-65
2024/01/17 11:44:11;;;;;;;2.00;1.90;;;0.90;97.30;;;;;;4985890;28;20793;-64
2024/01/17 11:46:37;;;;;;;3.17;2.23;;;0.90;97.30;;;;;;4978455;28;20424;-65
2024/01/17 11:49:05;;;;;;;1.43;1.33;;;1.00;97.30;;;;;;4990206;28;20429;-65
2024/01/17 11:51:32;;;;;;;3.07;2.80;;;1.00;97.30;;;;;;4983761;28;20960;-66
2024/01/17 11:53:59;;;;;;;1.23;1.13;;;1.10;97.30;;;;;;4987354;28;20465;-64
2024/01/17 11:56:26;;;;;;;1.70;1.40;;;1.10;97.30;;;;;;4983534;28;20475;-64
2024/01/17 11:58:57;;;;;;;6.33;2.20;;;1.10;97.30;;;;;;4980520;28;20511;-65
2024/01/17 12:01:22;;;;;;;1.30;1.20;;;1.20;97.30;;;;;;4989764;28;20460;-65
2024/01/17 12:03:49;;;;;;;2.10;1.77;;;1.20;97.30;;;;;;4943268;28;1176870;-65
2024/01/17 12:06:16;;;;;;;2.47;2.27;;;1.30;97.30;;;;;;4974355;28;20440;-65
2024/01/17 12:08:42;;;;;;;1.20;1.10;;;1.30;97.30;;;;;;4979808;28;20544;-65
2024/01/17 12:11:07;;;;;;;1.30;1.20;;;1.30;97.30;;;;;;4988282;28;20473;-65
2024/01/17 12:13:37;;;;;;;1.47;1.40;;;1.30;97.30;;;;;;4988953;28;20689;-65
2024/01/17 12:16:04;;;;;;;3.37;2.87;;;1.40;97.30;;;;;;4980860;28;20198;-64
2024/01/17 12:18:31;;;;;;;2.00;1.90;;;1.40;97.30;;;;;;4981606;28;20436;-64
2024/01/17 12:21:01;;;;;;;1.10;1.00;;;1.40;97.30;;;;;;4986312;28;20970;-65
2024/01/17 12:23:28;;;;;;;9.30;2.10;;;1.30;97.30;;;;;;4990784;28;20413;-65
2024/01/17 12:25:55;;;;;;;1.90;1.60;;;1.30;97.30;;;;;;4988933;28;20532;-64
2024/01/17 12:28:22;;;;;;;2.73;2.10;;;1.30;97.30;;;;;;4987587;28;20529;-65
2024/01/17 12:30:58;;;;;;;2.20;1.73;;;1.30;97.30;;;;;;4988950;28;20456;-65
2024/01/17 12:33:24;;;;;;;13.30;2.43;;;1.30;97.30;;;;;;4989315;28;20952;-65
2024/01/17 12:35:54;;;;;;;1.37;1.27;;;1.20;97.30;;;;;;4988853;28;20519;-65
2024/01/17 12:38:20;;;;;;;1.23;1.13;;;1.20;97.30;;;;;;4990308;28;20676;-65
2024/01/17 12:40:48;;;;;;;1.73;1.67;;;1.20;97.30;;;;;;4988489;28;20976;-64
2024/01/17 12:43:14;;;;;;;3.13;1.70;;;1.20;97.30;;;;;;4988814;28;20512;-65
2024/01/17 12:45:40;;;;;;;1.20;1.10;;;1.20;97.30;;;;;;4990150;28;20421;-65
2024/01/17 12:48:10;;;;;;;1.47;1.37;;;1.30;97.30;;;;;;4988636;28;20479;-65
2024/01/17 12:50:35;;;;;;;1.57;1.47;;;1.30;97.30;;;;;;4983006;28;20465;-65
2024/01/17 12:53:01;;;;;;;1.47;1.37;;;1.30;97.30;;;;;;4986412;28;20421;-65
2024/01/17 12:55:27;;;;;;;2.80;2.27;;;1.20;97.30;;;;;;4997095;23;20229;-89
2024/01/17 12:57:52;;;;;;;1.00;0.90;;;1.30;97.30;;;;;;4990731;28;20618;-89
2024/01/17 13:00:20;;;;;;;2.77;2.57;;;1.30;97.30;;;;;;4990157;28;20236;-89
2024/01/17 13:02:46;;;;;;;3.27;1.57;;;1.30;97.30;;;;;;4990551;28;20392;-89
2024/01/17 13:05:13;;;;;;;1.73;1.63;;;1.30;97.30;;;;;;4990664;28;20570;-89
2024/01/17 13:07:40;;;;;;;1.00;0.90;;;1.40;97.30;;;;;;4992137;28;20444;-89
2024/01/17 13:10:21;;;;;;;1.53;1.53;;;1.30;97.30;;;;;;4990586;28;20428;-89
2024/01/17 13:12:47;;;;;;;2.30;1.97;;;1.30;97.30;;;;;;4982755;28;20480;-89
2024/01/17 13:15:14;;;;;;;1.83;1.73;;;1.30;97.30;;;;;;4990706;28;20461;-89
2024/01/17 13:17:48;;;;;;;1.73;1.63;;;1.30;97.30;;;;;;4990426;28;20453;-89
2024/01/17 13:20:18;;;;;;;2.70;1.93;;;1.30;97.30;;;;;;4990178;28;20456;-89
2024/01/17 13:22:44;;;;;;;5.10;2.33;;;1.30;97.30;;;;;;4989918;28;20409;-89
2024/01/17 13:25:09;;;;;;;1.30;1.20;;;1.30;97.30;;;;;;4989179;28;20456;-89
2024/01/17 13:27:35;;;;;;;1.93;1.30;;;1.30;97.30;;;;;;4989608;28;20787;-89
2024/01/17 13:30:03;;;;;;;1.50;1.40;;;1.30;97.30;;;;;;4990052;28;20193;-89
2024/01/17 13:32:30;;;;;;;2.00;1.83;;;1.30;97.30;;;;;;4990114;28;20420;-89
2024/01/17 13:34:55;;;;;;;1.57;1.47;;;1.30;97.30;;;;;;4991495;28;20453;-89
2024/01/17 13:37:22;;;;;;;2.00;1.77;;;1.30;97.30;;;;;;4992154;28;20431;-89
2024/01/17 13:39:47;;;;;;;2.03;1.90;;;1.30;97.30;;;;;;4994268;28;20186;-89
2024/01/17 13:42:13;;;;;;;5.40;2.40;;;1.30;97.30;;;;;;4987614;28;20417;-89
2024/01/17 13:44:38;;;;;;;15.03;1.80;;;1.30;97.30;;;;;;4994564;28;20219;-89
2024/01/17 13:47:05;;;;;;;1.73;1.63;;;1.40;97.30;;;;;;4994422;28;20215;-89
2024/01/17 13:49:33;;;;;;;1.27;1.17;;;1.30;97.30;;;;;;4998330;28;20174;-89
2024/01/17 13:51:58;;;;;;;3.00;2.53;;;1.30;97.30;;;;;;4994783;28;20881;-89
2024/01/17 13:54:24;;;;;;;2.40;2.20;;;1.30;97.30;;;;;;4993613;28;20456;-89
2024/01/17 13:56:50;;;;;;;3.17;2.97;;;1.30;97.30;;;;;;4993809;28;20229;-89
2024/01/17 13:59:15;;;;;;;2.20;1.77;;;1.30;97.30;;;;;;4994264;28;20192;-89
2024/01/17 14:01:41;;;;;;;2.30;2.10;;;1.30;97.30;;;;;;4994071;28;20182;-88
2024/01/17 14:04:06;;;;;;;2.27;2.07;;;1.30;97.30;;;;;;4994003;28;20186;-88
2024/01/17 14:06:32;;;;;;;2.60;2.40;;;1.30;97.30;;;;;;4991498;28;20348;-89
2024/01/17 14:08:57;;;;;;;1.83;1.83;;;1.20;97.30;;;;;;4994225;28;20649;-89
2024/01/17 14:11:23;;;;;;;2.33;2.20;;;1.20;97.30;;;;;;4991608;28;20667;-89
2024/01/17 14:13:48;;;;;;;1.70;1.60;;;1.10;97.30;;;;;;4994274;28;20205;-89
2024/01/17 14:16:14;;;;;;;4.50;2.50;;;1.20;97.30;;;;;;4993752;28;20214;-90
2024/01/17 14:18:39;;;;;;;1.77;1.67;;;1.20;97.30;;;;;;4994199;28;20190;-89
2024/01/17 14:21:05;;;;;;;1.40;1.30;;;1.20;97.30;;;;;;4994303;28;20174;-89
2024/01/17 14:23:31;;;;;;;1.57;1.47;;;1.20;97.30;;;;;;4988359;28;20183;-89
2024/01/17 14:25:57;;;;;;;2.70;2.50;;;1.20;97.30;;;;;;4990868;28;20451;-89
2024/01/17 14:28:23;;;;;;;6.00;2.80;;;1.20;97.30;;;;;;4986870;28;20594;-90
2024/01/17 14:30:49;;;;;;;2.47;2.27;;;1.20;97.30;;;;;;4995408;28;20665;-88
2024/01/17 14:33:19;;;;;;;1.20;1.10;;;1.20;97.30;;;;;;4994208;28;20424;-89
2024/01/17 14:35:44;;;;;;;1.77;1.70;;;1.20;97.30;;;;;;4993259;28;20526;-89
2024/01/17 14:38:12;;;;;;;1.77;1.73;;;1.20;97.30;;;;;;4992626;28;20947;-89
2024/01/17 14:40:41;;;;;;;1.50;1.40;;;1.20;97.30;;;;;;4994069;28;20452;-89
2024/01/17 14:43:06;;;;;;;5.60;3.17;;;1.20;97.30;;;;;;4992965;28;20569;-87
2024/01/17 14:45:33;;;;;;;1.60;1.50;;;1.10;97.30;;;;;;4992763;28;21069;-89
2024/01/17 14:47:59;;;;;;;1.63;1.50;;;1.10;97.30;;;;;;5008620;28;20177;-88
2024/01/17 14:50:25;;;;;;;1.43;1.40;;;1.10;97.30;;;;;;4991469;28;20433;-90
2024/01/17 14:52:50;;;;;;;1.87;1.70;;;1.10;97.30;;;;;;4991884;28;20186;-89
2024/01/17 14:55:16;;;;;;;5.63;1.20;;;1.10;97.30;;;;;;4987245;28;20669;-90
2024/01/17 14:57:41;;;;;;;1.10;1.00;;;1.00;97.30;;;;;;4992474;28;20663;-89
2024/01/17 15:00:17;;;;;;;2.13;1.97;;;1.00;97.30;;;;;;4993570;28;20257;-89
2024/01/17 15:02:47;;;;;;;1.33;1.23;;;1.00;97.30;;;;;;4990918;28;20181;-89
2024/01/17 15:05:13;;;;;;;4.60;1.83;;;1.00;97.30;;;;;;4991277;28;20457;-90
2024/01/17 15:07:38;;;;;;;2.07;1.50;;;0.90;97.30;;;;;;4991365;28;20439;-89
2024/01/17 15:10:06;;;;;;;2.50;1.63;;;0.90;97.30;;;;;;4992532;28;20251;-89
2024/01/17 15:12:31;;;;;;;1.77;1.67;;;0.90;97.30;;;;;;4992290;28;20204;-89
2024/01/17 15:14:57;;;;;;;1.53;1.43;;;0.90;97.30;;;;;;4992425;28;20468;-89
2024/01/17 15:17:22;;;;;;;2.57;2.37;;;0.80;97.30;;;;;;4992220;28;20188;-89
2024/01/17 15:19:48;;;;;;;2.10;1.87;;;0.80;97.30;;;;;;4985945;28;20189;-89
2024/01/17 15:22:13;;;;;;;2.67;2.23;;;0.80;97.30;;;;;;4993547;28;20658;-89
2024/01/17 15:24:39;;;;;;;3.70;3.40;;;0.70;97.30;;;;;;4992400;28;20686;-89
2024/01/17 15:27:04;;;;;;;1.73;1.63;;;0.70;97.30;;;;;;4985848;28;20206;-90
2024/01/17 15:29:30;;;;;;;2.00;1.73;;;0.70;97.30;;;;;;4992143;28;20193;-90
2024/01/17 15:31:56;;;;;;;2.50;2.30;;;0.60;97.30;;;;;;4992365;28;20193;-89
2024/01/17 15:34:21;;;;;;;2.17;2.00;;;0.60;97.30;;;;;;4985212;28;20219;-90
2024/01/17 15:36:49;;;;;;;1.70;1.60;;;0.50;97.30;;;;;;4991971;28;20240;-89
2024/01/17 15:39:18;;;;;;;3.23;1.77;;;0.50;97.30;;;;;;4991758;28;20193;-89
2024/01/17 15:41:45;;;;;;;6.67;1.30;;;0.50;97.30;;;;;;4991756;28;20425;-89
2024/01/17 15:44:10;;;;;;;1.10;1.00;;;0.50;97.30;;;;;;4992065;28;20468;-88
2024/01/17 15:46:36;;;;;;;1.40;1.30;;;0.50;97.30;;;;;;4990641;28;20445;-88
2024/01/17 15:49:02;;;;;;;1.50;1.40;;;0.50;97.30;;;;;;4991690;28;20200;-89
2024/01/17 15:51:28;;;;;;;4.10;1.30;;;0.50;97.30;;;;;;4985363;28;20235;-88
2024/01/17 15:53:53;;;;;;;1.20;1.10;;;0.50;97.30;;;;;;4982363;28;20511;-89
2024/01/17 15:56:21;;;;;;;4.20;1.50;;;0.50;97.30;;;;;;4983077;28;20468;-89
2024/01/17 15:58:47;;;;;;;1.60;1.50;;;0.50;97.30;;;;;;4982937;28;20605;-89
2024/01/17 16:01:13;;;;;;;1.17;1.07;;;0.50;97.30;;;;;;4983643;28;20409;-88
2024/01/17 16:03:39;;;;;;;2.70;2.23;;;0.40;97.30;;;;;;4980880;28;20468;-89
2024/01/17 16:06:08;;;;;;;3.27;2.00;;;0.40;97.30;;;;;;4984939;28;20513;-89
2024/01/17 16:08:33;;;;;;;2.43;1.30;;;0.40;97.30;;;;;;4982368;28;20181;-89
2024/01/17 16:10:59;;;;;;;1.33;1.10;;;0.40;97.30;;;;;;4980281;28;20429;-88
2024/01/17 16:13:24;;;;;;;1.10;1.00;;;0.40;97.30;;;;;;4984983;28;20188;-90
2024/01/17 16:15:50;;;;;;;9.13;2.17;;;0.40;97.30;;;;;;4981176;28;20729;-90
2024/01/17 16:18:16;;;;;;;12.60;2.73;;;0.40;97.30;;;;;;4988280;28;20625;-89
2024/01/17 16:20:42;;;;;;;17.80;3.90;;;0.40;97.30;;;;;;4991743;28;20429;-89
2024/01/17 16:23:08;;;;;;;3.73;3.10;;;0.40;97.30;;;;;;4990965;28;20186;-90
2024/01/17 16:25:34;;;;;;;2.47;2.27;;;0.40;97.30;;;;;;4993466;28;20484;-89
2024/01/17 16:28:00;;;;;;;10.43;4.23;;;0.40;97.30;;;;;;4990317;28;20439;-89
2024/01/17 16:30:25;;;;;;;5.77;5.47;;;0.40;97.30;;;;;;4992409;28;20468;-89
2024/01/17 16:32:51;;;;;;;2.47;1.90;;;0.40;97.30;;;;;;4990926;28;20337;-88
2024/01/17 16:35:16;;;;;;;5.80;4.73;;;0.40;97.30;;;;;;4990910;28;20217;-89
2024/01/17 16:37:42;;;;;;;1.53;1.43;;;0.40;97.30;;;;;;4991246;28;20616;-89
2024/01/17 16:40:08;;;;;;;2.07;1.93;;;0.40;97.30;;;;;;4991674;28;20232;-89
2024/01/17 16:42:33;;;;;;;1.83;1.77;;;0.40;97.30;;;;;;4990425;28;20273;-89
2024/01/17 16:44:59;;;;;;;4.07;1.43;;;0.40;97.30;;;;;;4990743;28;20516;-89
2024/01/17 16:47:25;;;;;;;2.07;1.93;;;0.40;97.30;;;;;;4990594;28;20186;-89
2024/01/17 16:49:52;;;;;;;2.00;1.90;;;0.40;97.30;;;;;;4990462;28;20185;-89
2024/01/17 16:52:18;;;;;;;4.20;2.90;;;0.40;97.30;;;;;;4990017;28;20243;-89
2024/01/17 16:54:43;;;;;;;3.87;3.67;;;0.40;97.30;;;;;;4990755;28;20457;-89
2024/01/17 16:57:09;;;;;;;1.67;1.63;;;0.30;97.30;;;;;;4989998;28;20242;-89
2024/01/17 16:59:34;;;;;;;1.93;1.83;;;0.30;97.30;;;;;;4990681;28;20197;-90
2024/01/17 17:02:00;;;;;;;1.87;1.77;;;0.30;97.30;;;;;;4990804;28;20189;-89
2024/01/17 17:04:26;;;;;;;1.60;1.50;;;0.30;97.30;;;;;;4995844;28;20691;-89
2024/01/17 17:06:51;;;;;;;2.07;1.93;;;0.30;97.30;;;;;;4984567;28;20202;-89
2024/01/17 17:09:17;;;;;;;6.23;5.30;;;0.30;97.30;;;;;;4988932;28;20196;-89
2024/01/17 17:11:43;;;;;;;2.37;2.17;;;0.30;97.30;;;;;;4991459;28;20240;-89
2024/01/17 17:14:09;;;;;;;1.83;1.73;;;0.30;97.30;;;;;;4992302;28;20468;-89
2024/01/17 17:16:35;;;;;;;1.73;1.67;;;0.30;97.30;;;;;;4991732;28;20233;-89
2024/01/17 17:19:01;;;;;;;4.60;4.33;;;0.30;97.30;;;;;;4990827;28;20608;-89
2024/01/17 17:21:28;;;;;;;2.20;2.00;;;0.30;97.30;;;;;;4991866;28;20756;-88
2024/01/17 17:23:53;;;;;;;2.53;1.83;;;0.30;97.30;;;;;;4993372;28;20194;-89
2024/01/17 17:26:19;;;;;;;2.53;1.77;;;0.30;97.30;;;;;;5012372;28;20456;-90
2024/01/17 17:28:45;;;;;;;2.60;2.27;;;0.30;97.30;;;;;;5014524;28;20182;-91
2024/01/17 17:31:13;;;;;;;2.20;2.00;;;0.30;97.30;;;;;;4994173;28;20592;-89
2024/01/17 17:33:39;;;;;;;2.00;1.87;;;0.30;97.30;;;;;;4989121;28;20188;-89
2024/01/17 17:36:05;;;;;;;2.03;1.50;;;0.30;97.30;;;;;;4990294;28;20445;-89
2024/01/17 17:38:31;;;;;;;2.43;2.23;;;0.30;97.30;;;;;;4987585;28;20786;-89
2024/01/17 17:40:56;;;;;;;1.73;1.63;;;0.30;97.30;;;;;;4979308;28;20190;-89
2024/01/17 17:43:22;;;;;;;2.07;1.93;;;0.30;97.30;;;;;;4989926;28;20421;-89
2024/01/17 17:45:48;;;;;;;2.07;1.93;;;0.20;97.30;;;;;;4982999;28;20208;-89
2024/01/17 17:48:16;;;;;;;2.70;2.50;;;0.20;97.30;;;;;;4990353;28;20236;-88
2024/01/17 17:50:44;;;;;;;2.77;2.57;;;0.30;97.30;;;;;;4995199;28;20682;-89
2024/01/17 17:53:10;;;;;;;3.23;3.00;;;0.30;97.30;;;;;;5009529;28;20424;-89
2024/01/17 17:55:35;;;;;;;3.10;2.90;;;0.30;97.30;;;;;;4997738;28;20510;-88